Tiempo atmosférico en la estación meteorológica de Miguelañez, Segovia (870 m.)



Fecha
DESCASC
Temp. máxima en grados centígrados (hora)
DESCASC
Temp. mínima en grados centígrados (hora)
DESCASC
Temp. media en grados centígrados
DESCASC
Racha de viento máxima en m/sg (hora)
DESCASC
Velocidad máxima media en intervalos de 10 minutos(hora)
DESCASC
Precipitaciones diarias en mm
DESCASC
Precipitaciones de 00:00 a 06:00 en mm
DESCASC
Precipitaciones de 06:00 a 12:00 en mm
DESCASC
Precipitaciones de 12:00 a 18:00 en mm
DESCASC
Precipitaciones de 18:00 a 24:00 en mm
DESCASC
20-09-2020 19.9 (18:00) 13.8 (02:10) 16.8 12.78 (14:50) 9.44 (14:50) 2.2 0.6 0.4 0.8 0.4
19-09-2020 19.7 (15:30) 12.9 (01:50) 16.3 17.5 (16:00) 9.44 (16:00) 5.4 4.8 0.4 0 0.2
17-09-2020 25.3 (15:00) 15.6 (00:00) 20.4 21.67 (22:10) 13.33 (22:00) 2.6 0 0 0 2.6
16-09-2020 29.2 (16:50) 12 (08:20) 20.6 14.44 (23:59) 6.94 (23:59) 0 0 0 0 0
15-09-2020 27.1 (16:50) 14.3 (00:00) 20.7 10.28 (14:20) 5.83 (03:50) 0.4 0.4 0 0 0
14-09-2020 28.9 (17:50) 16.1 (00:00) 22.5 19.44 (23:00) 11.67 (23:00) 2.6 0 0 0 2.6
13-09-2020 32.4 (15:40) 15.8 (00:00) 24.1 12.78 (17:20) 8.89 (17:50) 0 0 0 0 0
12-09-2020 32 (16:00) 12.3 (07:10) 22.2 8.61 (12:00) 6.39 (00:40) 0 0 0 0 0
11-09-2020 30.1 (17:30) 11.5 (00:00) 20.8 7.78 (23:59) 6.11 (23:59) 0 0 0 0 0
10-09-2020 28.6 (14:50) 9.2 (00:00) 18.9 7.78 (17:10) 5.28 (23:40) 0 0 0 0 0
09-09-2020 28 (16:20) 9 (07:00) 18.5 7.78 (17:20) 5 (10:30) 0 0 0 0 0
08-09-2020 26.7 (18:00) 4.4 (00:00) 15.6 7.5 (21:20) 5.56 (21:10) 0 0 0 0 0
07-09-2020 23.5 (17:00) 9.4 (07:50) 16.4 12.5 (20:00) 6.94 (19:50) 0 0 0 0 0
06-09-2020 29 (16:10) 12.2 (00:00) 20.6 9.72 (18:40) 7.78 (18:40) 0 0 0 0 0
05-09-2020 32.8 (18:00) 17.7 (00:00) 25.3 10.56 (20:10) 7.5 (20:10) 0 0 0 0 0
04-09-2020 32.2 (16:20) 16.5 (00:00) 24.4 11.39 (08:00) 8.89 (08:40) 0 0 0 0 0
03-09-2020 31.2 (18:50) 10.9 (00:00) 21.1 6.11 (22:50) 5.28 (07:00) 0 0 0 0 0
02-09-2020 27.1 (17:50) 8.9 (00:00) 18 8.33 (16:30) 4.72 (23:10) 0 0 0 0 0
01-09-2020 26.9 (17:10) 11.1 (00:00) 19 10.83 (19:20) 5 (02:30) 0 0 0 0 0
31-08-2020 24 (17:40) 6 (00:00) 15 9.72 (17:40) 5.28 (00:10) 0 0 0 0 0
30-08-2020 19.6 (17:50) 4.9 (00:00) 12.3 8.06 (18:50) 5.56 (18:00) 0 0 0 0 0
29-08-2020 20.3 (18:10) 8.3 (00:00) 14.3 12.78 (20:00) 9.17 (19:00) 0.8 0 0 0 0.8
28-08-2020 27.1 (17:20) 14.2 (00:00) 20.7 12.78 (20:00) 8.61 (19:50) 0 0 0 0 0
27-08-2020 32.9 (17:50) 17.6 (00:00) 25.3 8.06 (18:40) 5.28 (19:40) 0 0 0 0 0
26-08-2020 33.7 (17:30) 16.5 (00:00) 25.1 10.28 (04:00) 6.39 (03:30) 0 0 0 0 0
25-08-2020 33.7 (17:40) 15.4 (00:00) 24.6 10 (13:50) 6.11 (16:30) 0 0 0 0 0
24-08-2020 31.6 (17:30) 10.7 (08:00) 21.2 7.22 (19:00) 4.72 (19:10) 0 0 0 0 0
23-08-2020 29.7 (17:30) 9.7 (00:00) 19.7 6.94 (15:30) 4.17 (22:20) 0 0 0 0 0
22-08-2020 28.8 (17:40) 13 (00:00) 20.9 10.28 (16:00) 5.28 (19:20) 0 0 0 0 0

Gráficas

Temp. máximas Temp. mínimas Temp. medias Precipitaciones Rachas de viento máximas Velocidades máximas media en intervalos de 10 minutos

Datos horarios

Fecha y hora oficial Temperatura (ºC) Velocidad del viento (km/h) Dirección del viento Racha (km/h) Dirección de racha Precipitación (mm) Presión (hPa) Tendencia (hPa) Humedad (%)
2020-09-20 23:00:00 14.9 10 Sudoeste 15 Sudoeste 0 -- -- 90
2020-09-20 22:00:00 14.8 11 Sudoeste 15 Sudoeste 0 -- -- 90
2020-09-20 21:00:00 15 9 Sudoeste 15 Oeste 0 -- -- 93
2020-09-20 20:00:00 15.1 12 Oeste 38 Noroeste 0.4 -- -- 89
2020-09-20 19:00:00 17.7 21 Oeste 36 Sudoeste 0 -- -- 76
2020-09-20 18:00:00 19.9 23 Oeste 39 Oeste 0 -- -- 68
2020-09-20 17:00:00 19.2 32 Oeste 43 Oeste 0 -- -- 71
2020-09-20 16:00:00 17.7 17 Oeste 29 Oeste 0.2 -- -- 87
2020-09-20 15:00:00 15.2 25 Oeste 46 Oeste 0.4 -- -- 89
2020-09-20 14:00:00 18 23 Oeste 31 Oeste 0.2 -- -- 77
2020-09-20 13:00:00 17.6 9 Sudoeste 21 Sur 0 -- -- 78
2020-09-20 12:00:00 15.6 5 Sudoeste 21 Sudoeste 0.2 -- -- 90
2020-09-20 11:00:00 15.9 4 Sur 7 Sudoeste 0 -- -- 87
2020-09-20 10:00:00 15 0 Calma 6 Oeste 0 -- -- 93
2020-09-20 09:00:00 14.6 5 Oeste 9 Noroeste 0.2 -- -- 91
2020-09-20 08:00:00 14.5 3 Sudeste 10 Sudoeste 0 -- -- 91
2020-09-20 07:00:00 14.6 9 Sudoeste 16 Sur 0 -- -- 88
2020-09-20 06:00:00 14.5 4 Sur 9 Sudoeste 0 -- -- 91
2020-09-20 05:00:00 14.5 8 Sur 14 Sur 0 -- -- 90
2020-09-20 04:00:00 14.4 8 Sur 15 Sudoeste 0 -- -- 92
2020-09-20 03:00:00 14.2 10 Sur 18 Sur 0 -- -- 92
2020-09-20 02:00:00 13.9 14 Sudeste 20 Sudeste 0.4 -- -- 93
2020-09-20 01:00:00 14.1 13 Sur 23 Sudeste 0.2 -- -- 92
2020-09-20 00:00:00 14.2 6 Sur 18 Sudoeste 0.2 -- -- 91
2020-09-19 23:00:00 14.6 6 Oeste 25 Sudoeste 0 -- -- 87
2020-09-19 22:00:00 15 19 Sudoeste 31 Sudoeste 0 -- -- 80
2020-09-19 21:00:00 15.4 18 Sudoeste 35 Sudoeste 0 -- -- 74
2020-09-19 20:00:00 16.7 24 Sudoeste 35 Sudoeste 0 -- -- 65
2020-09-19 19:00:00 17.5 21 Sudoeste 41 Sudoeste 0 -- -- 65
2020-09-19 18:00:00 19 29 Sudoeste 44 Sudoeste 0 -- -- 60
2020-09-19 17:00:00 19.3 24 Sudoeste 41 Sudoeste 0 -- -- 59
2020-09-19 16:00:00 18.6 34 Oeste 63 Oeste 0 -- -- 59
2020-09-19 15:00:00 19.1 27 Oeste 44 Oeste 0 -- -- 65
2020-09-19 14:00:00 18.4 30 Oeste 44 Sudoeste 0 -- -- 67
2020-09-19 13:00:00 16.1 24 Oeste 50 Oeste 0 -- -- 84
2020-09-19 12:00:00 15.7 33 Sudoeste 43 Sudoeste 0.2 -- -- 78
2020-09-19 11:00:00 15.3 27 Sudoeste 43 Sudoeste 0 -- -- 81
2020-09-19 10:00:00 14.8 24 Sudoeste 39 Sudoeste 0 -- -- 84
2020-09-19 09:00:00 14.5 23 Sur 32 Sur 0 -- -- 86
2020-09-19 08:00:00 14.1 21 Sur 36 Sudeste 0 -- -- 87
2020-09-19 07:00:00 13.7 24 Sudeste 32 Sudeste 0.2 -- -- 89
2020-09-19 06:00:00 13.5 17 Sudeste 34 Sudeste 0.4 -- -- 88
2020-09-19 05:00:00 13.7 24 Sudeste 32 Sudeste 0.2 -- -- 86
2020-09-19 04:00:00 13.7 27 Sudeste 41 Sudeste 0 -- -- 86
2020-09-19 03:00:00 13.1 16 Sudeste 21 Este 0 -- -- 94
2020-09-19 02:00:00 12.9 8 Este 15 Este 0.6 -- -- 94
2020-09-19 01:00:00 13.1 12 Sudeste 28 Sudeste 3.6 -- -- 93
2020-09-19 00:00:00 13.3 14 Sudeste 36 Sudeste 1.6 -- -- 91
2020-09-18 23:00:00 13.7 19 Sudeste 30 Sudeste 0 -- -- 86
2020-09-18 22:00:00 12.1 12 Sudeste 22 Sudeste 0.2 -- -- 92
2020-09-18 21:00:00 12.2 12 Este 19 Este 0 -- -- 93
2020-09-18 20:00:00 13.1 6 Sudeste 31 Sur 1 -- -- 90
2020-09-18 19:00:00 13.8 28 Sur 49 Sur 2.4 -- -- 86
2020-09-18 18:00:00 14.5 26 Sudeste 63 Sudeste 1.4 -- -- 87
2020-09-18 17:00:00 20.2 33 Sudeste 53 Sudeste 0 -- -- 59
2020-09-18 16:00:00 21.1 24 Sur 42 Sudeste 0 -- -- 52
2020-09-18 15:00:00 21.6 26 Sur 43 Sur 0 -- -- 50
2020-09-18 14:00:00 20.4 27 Sur 36 Sur 0 -- -- 59
2020-09-18 13:00:00 18.3 18 Sur 33 Sudeste 0 -- -- 70
2020-09-18 12:00:00 16.4 16 Sudeste 30 Sudeste 0 -- -- 88
2020-09-18 11:00:00 14.2 15 Sudeste 23 Este 1 -- -- 95
2020-09-18 10:00:00 13.2 6 Este 17 Este 1.4 -- -- 96
2020-09-18 09:00:00 12.5 3 Oeste 27 Oeste 0.4 -- -- 95
2020-09-18 08:00:00 12.4 8 Sudeste 26 Este 0 -- -- 94
2020-09-18 07:00:00 12.5 18 Sudeste 29 Sudeste 2.6 -- -- 94
2020-09-18 06:00:00 12.8 7 Sudeste 44 Sudoeste 8.6 -- -- 92
2020-09-18 05:00:00 14.6 22 Sudoeste 33 Sudoeste 2.2 -- -- 85
2020-09-18 04:00:00 16.1 20 Sudeste 30 Sudeste 2.4 -- -- 87
2020-09-18 03:00:00 16.4 14 Sudeste 22 Sudeste 0 -- -- 86
2020-09-18 02:00:00 16.2 7 Este 18 Este 0 -- -- 87
2020-09-18 01:00:00 15.9 14 Este 21 Sudeste 0.2 -- -- 87
2020-09-18 00:00:00 16 14 Sudeste 25 Sudeste 2 -- -- 88
2020-09-17 23:00:00 16.7 17 Sudeste 78 Sudeste 0.6 -- -- 77
2020-09-17 22:00:00 17.5 48 Sudeste 65 Sudeste 0 -- -- 72
2020-09-17 21:00:00 21.1 28 Sudeste 42 Sudeste 0 -- -- 49
2020-09-17 20:00:00 22.4 24 Sudeste 40 Sudeste 0 -- -- 57
2020-09-17 19:00:00 23.4 28 Sur 40 Sudeste 0 -- -- 52
2020-09-17 18:00:00 23.9 30 Sudeste 46 Sudeste 0 -- -- 53
2020-09-17 17:00:00 24.1 33 Sudeste 48 Sudeste 0 -- -- 50
2020-09-17 16:00:00 24.3 31 Sur 51 Sudeste 0 -- -- 47
2020-09-17 15:00:00 25.3 35 Sudeste 53 Sudeste 0 -- -- 44
2020-09-17 14:00:00 24.1 35 Sudeste 53 Sudeste 0 -- -- 48
2020-09-17 13:00:00 22.4 40 Sudeste 52 Sudeste 0 -- -- 54
2020-09-17 12:00:00 21.1 35 Sudeste 46 Sudeste 0 -- -- 60
2020-09-17 11:00:00 20.6 28 Sudeste 38 Sudeste 0 -- -- 62
2020-09-17 10:00:00 19.3 16 Sudeste 28 Sudeste 0 -- -- 68
2020-09-17 09:00:00 18 19 Sudeste 32 Sur 0 -- -- 72
2020-09-17 08:00:00 18.4 23 Sudeste 33 Sur 0 -- -- 69
2020-09-17 07:00:00 18.6 15 Sudeste 33 Sudeste 0 -- -- 66
2020-09-17 06:00:00 18.7 17 Sudeste 26 Sudeste 0 -- -- 64
2020-09-17 05:00:00 18.3 15 Sudeste 27 Sudeste 0 -- -- 69
2020-09-17 04:00:00 18.2 15 Sudeste 21 Sudeste 0 -- -- 71
2020-09-17 03:00:00 18.5 10 Sudeste 31 Sur 0 -- -- 71
2020-09-17 02:00:00 19.9 18 Sur 45 Sudeste 0 -- -- 57
2020-09-17 01:00:00 19.3 34 Sudeste 48 Sur 0 -- -- 64
2020-09-17 00:00:00 24.4 25 Sudeste 52 Sudeste 0 -- -- 36
2020-09-16 23:00:00 22.6 17 Sur 35 Sur 0 -- -- 43
2020-09-16 22:00:00 22.1 8 Sudeste 12 Sur 0 -- -- 43
2020-09-16 21:00:00 23.9 13 Sur 17 Sudeste 0 -- -- 39
2020-09-16 20:00:00 25.9 12 Sur 25 Sur 0 -- -- 36
2020-09-16 19:00:00 26.8 18 Sur 30 Sudeste 0 -- -- 31
2020-09-16 18:00:00 28.7 21 Sudeste 33 Sudeste 0 -- -- 29
2020-09-16 17:00:00 29 19 Sudeste 33 Sudeste 0 -- -- 29
2020-09-16 16:00:00 28.5 17 Sudeste 36 Este 0 -- -- 30
2020-09-16 15:00:00 28.4 12 Sudeste 28 Sudeste 0 -- -- 31
2020-09-16 14:00:00 27 9 Sudeste 25 Sudeste 0 -- -- 36
2020-09-16 13:00:00 25.5 5 Norte 14 Nordeste 0 -- -- 42
2020-09-16 12:00:00 23.8 7 Nordeste 15 Norte 0 -- -- 45
2020-09-16 11:00:00 21.4 7 Nordeste 13 Sudeste 0 -- -- 53
2020-09-16 10:00:00 17.3 9 Sudeste 15 Sudeste 0 -- -- 69
2020-09-16 09:00:00 13.6 12 Sudeste 15 Sudeste 0 -- -- 80
2020-09-16 08:00:00 12.7 8 Sudeste 10 Sudeste 0 -- -- 79
2020-09-16 07:00:00 14.5 11 Sudeste 18 Sudeste 0 -- -- 73
2020-09-16 06:00:00 14.8 14 Sudeste 17 Sudeste 0 -- -- 73
2020-09-16 05:00:00 15.5 15 Sudeste 20 Sudeste 0 -- -- 70
2020-09-16 04:00:00 15.6 11 Sudeste 15 Sudeste 0 -- -- 70
2020-09-16 03:00:00 15.6 11 Sudeste 18 Sudeste 0 -- -- 71
2020-09-16 02:00:00 15.9 13 Sudeste 17 Sudeste 0 -- -- 72
2020-09-16 01:00:00 19.5 12 Sudoeste 17 Sur 0 -- -- 58
2020-09-16 00:00:00 19.9 13 Sudoeste 20 Sudoeste 0 -- -- 57
2020-09-15 23:00:00 21.1 15 Sur 19 Sur 0 -- -- 51
2020-09-15 22:00:00 22 14 Sur 21 Sur 0 -- -- 49
2020-09-15 21:00:00 22.5 17 Sur 23 Sur 0 -- -- 48
2020-09-15 20:00:00 24.8 16 Sudeste 27 Sudeste 0 -- -- 43
2020-09-15 19:00:00 26.3 19 Sudeste 27 Sudeste 0 -- -- 39
2020-09-15 18:00:00 26.6 12 Sur 27 Sudoeste 0 -- -- 38
2020-09-15 17:00:00 27 14 Sudoeste 31 Sudoeste 0 -- -- 38
2020-09-15 16:00:00 26.4 14 Sur 31 Sudeste 0 -- -- 41
2020-09-15 15:00:00 25.7 15 Sudoeste 37 Sudoeste 0 -- -- 43
2020-09-15 14:00:00 25.3 13 Sudoeste 24 Sudoeste 0 -- -- 44
2020-09-15 13:00:00 23.9 10 Sudoeste 21 Sudoeste 0 -- -- 53
2020-09-15 12:00:00 22.4 12 Sudoeste 20 Sudoeste 0 -- -- 59
2020-09-15 11:00:00 20 8 Sudoeste 17 Sudoeste 0 -- -- 70
2020-09-15 10:00:00 17.9 12 Sudoeste 17 Sudoeste 0 -- -- 77
2020-09-15 09:00:00 17.1 14 Sudoeste 18 Sudoeste 0 -- -- 78
2020-09-15 08:00:00 16.4 14 Sudoeste 22 Sudoeste 0 -- -- 80
2020-09-15 07:00:00 15 2 Este 13 Sudeste 0 -- -- 88
2020-09-15 06:00:00 15 10 Este 19 Sudeste 0 -- -- 87
2020-09-15 05:00:00 15.3 15 Sudeste 27 Sudeste 0 -- -- 88
2020-09-15 04:00:00 15.6 19 Sudeste 31 Sudeste 0 -- -- 87
2020-09-15 03:00:00 16 6 Este 17 Nordeste 0 -- -- 81
2020-09-15 02:00:00 16 6 Noroeste 36 Oeste 0 -- -- 81
2020-09-15 01:00:00 16.3 14 Nordeste 21 Nordeste 0.4 -- -- 82
2020-09-15 00:00:00 16.1 12 Norte 62 Sudoeste 2.6 -- -- 78
2020-09-14 23:00:00 20.3 42 Sudoeste 70 Sudoeste 0 -- -- 54
2020-09-14 22:00:00 22.7 8 Sudeste 22 Sur 0 -- -- 43
2020-09-14 21:00:00 24.5 21 Sudeste 35 Sudeste 0 -- -- 39
2020-09-14 20:00:00 26.2 26 Sudeste 46 Sudeste 0 -- -- 36
2020-09-14 19:00:00 27.7 32 Sudeste 48 Sudeste 0 -- -- 34
2020-09-14 18:00:00 28.7 31 Sur 44 Sudeste 0 -- -- 34
2020-09-14 17:00:00 27.1 19 Sudeste 36 Sudeste 0 -- -- 36
2020-09-14 16:00:00 27.6 22 Sudeste 39 Sudeste 0 -- -- 35
2020-09-14 15:00:00 26.6 25 Sur 34 Sur 0 -- -- 36
2020-09-14 14:00:00 24.6 21 Sur 35 Sur 0 -- -- 43
2020-09-14 13:00:00 24.4 22 Sur 31 Sur 0 -- -- 45
2020-09-14 12:00:00 24.4 25 Sur 37 Sur 0 -- -- 42
2020-09-14 11:00:00 23.4 29 Sudeste 43 Sudeste 0 -- -- 45
2020-09-14 10:00:00 23.3 27 Sudeste 37 Sudeste 0 -- -- 44
2020-09-14 09:00:00 21.1 24 Sur 39 Sur 0 -- -- 50
2020-09-14 08:00:00 20.5 27 Sur 44 Sur 0 -- -- 51
2020-09-14 07:00:00 20.8 26 Sur 34 Sur 0 -- -- 50
2020-09-14 06:00:00 20.8 17 Sur 27 Sur 0 -- -- 50
2020-09-14 05:00:00 20.5 21 Sudeste 43 Sudeste 0 -- -- 52
2020-09-14 04:00:00 21.9 31 Sudeste 52 Sudeste 0 -- -- 50
2020-09-14 03:00:00 22.9 38 Sudeste 53 Sudeste 0 -- -- 45
2020-09-14 02:00:00 23.4 33 Sudeste 46 Sudeste 0 -- -- 42
2020-09-14 01:00:00 23.7 28 Sudeste 37 Sudeste 0 -- -- 37
2020-09-14 00:00:00 21 15 Sudeste 21 Sudeste 0 -- -- 41
2020-09-13 23:00:00 21.8 17 Sudeste 24 Sudeste 0 -- -- 39
2020-09-13 22:00:00 22.3 18 Sudeste 26 Sur 0 -- -- 37
2020-09-13 21:00:00 26.1 22 Sudeste 33 Sudeste 0 -- -- 31
2020-09-13 20:00:00 28.1 26 Sudeste 36 Sudeste 0 -- -- 29
2020-09-13 19:00:00 29.9 21 Sudeste 40 Sudeste 0 -- -- 28
2020-09-13 18:00:00 31 28 Sur 46 Sudeste 0 -- -- 26
2020-09-13 17:00:00 30.5 13 Sur 29 Sur 0 -- -- 26
2020-09-13 16:00:00 31.7 17 Sudeste 32 Sudeste 0 -- -- 25
2020-09-13 15:00:00 30 20 Sur 31 Sudeste 0 -- -- 28
2020-09-13 14:00:00 30.1 15 Sur 36 Sur 0 -- -- 25
2020-09-13 13:00:00 31 24 Sur 34 Sur 0 -- -- 25
2020-09-13 12:00:00 29.8 15 Sudeste 34 Sudeste 0 -- -- 28
2020-09-13 11:00:00 27.2 12 Sudeste 19 Sudeste 0 -- -- 34
2020-09-13 10:00:00 22.8 3 Nordeste 17 Sudeste 0 -- -- 43
2020-09-13 09:00:00 19.9 13 Sudeste 18 Sudeste 0 -- -- 49
2020-09-13 08:00:00 18 10 Sudeste 15 Sudeste 0 -- -- 53
2020-09-13 07:00:00 18.5 6 Sudoeste 14 Sudeste 0 -- -- 50
2020-09-13 06:00:00 15.8 5 Sudeste 14 Este 0 -- -- 48
2020-09-13 05:00:00 16.7 6 Sudeste 13 Este 0 -- -- 43
2020-09-13 04:00:00 18.8 10 Sudeste 21 Sudeste 0 -- -- 36
2020-09-13 03:00:00 17.7 7 Sudeste 20 Sudeste 0 -- -- 39
2020-09-13 02:00:00 17 12 Este 15 Este 0 -- -- 35
2020-09-13 01:00:00 18.7 9 Sudeste 19 Sudeste 0 -- -- 31
2020-09-13 00:00:00 19.1 3 Este 18 Este 0 -- -- 30
2020-09-12 23:00:00 21.3 14 Este 21 Este 0 -- -- 27
2020-09-12 22:00:00 23.1 16 Nordeste 27 Nordeste 0 -- -- 24
2020-09-12 21:00:00 24.1 11 Nordeste 17 Norte 0 -- -- 23
2020-09-12 20:00:00 28 12 Norte 22 Norte 0 -- -- 20
2020-09-12 19:00:00 30.3 11 Norte 21 Este 0 -- -- 19
2020-09-12 18:00:00 31.8 8 Sudeste 18 Nordeste 0 -- -- 19
2020-09-12 17:00:00 31.5 4 Noroeste 17 Oeste 0 -- -- 20
2020-09-12 16:00:00 32 5 Este 21 Norte 0 -- -- 20
2020-09-12 15:00:00 30.9 6 Norte 18 Nordeste 0 -- -- 21
2020-09-12 14:00:00 30 8 Norte 28 Nordeste 0 -- -- 21
2020-09-12 13:00:00 28.8 14 Nordeste 30 Nordeste 0 -- -- 21
2020-09-12 12:00:00 27.1 15 Nordeste 31 Este 0 -- -- 30
2020-09-12 11:00:00 23.1 5 Este 12 Este 0 -- -- 37
2020-09-12 10:00:00 19.3 7 Este 17 Sudeste 0 -- -- 44
2020-09-12 09:00:00 14.4 6 Este 9 Este 0 -- -- 54
2020-09-12 08:00:00 13.5 4 Norte 15 Sudeste 0 -- -- 54
2020-09-12 07:00:00 13 3 Sudeste 15 Sudeste 0 -- -- 56
2020-09-12 06:00:00 14.1 12 Sudeste 17 Sudeste 0 -- -- 53
2020-09-12 05:00:00 15.1 10 Sudeste 16 Sudeste 0 -- -- 48
2020-09-12 04:00:00 16.6 15 Sudeste 27 Este 0 -- -- 43
2020-09-12 03:00:00 17.5 12 Este 20 Este 0 -- -- 41
2020-09-12 02:00:00 18.8 17 Este 27 Este 0 -- -- 38
2020-09-12 01:00:00 20.5 22 Este 30 Este 0 -- -- 35
2020-09-12 00:00:00 20.1 22 Este 28 Este 0 -- -- 34
2020-09-11 23:00:00 21.8 19 Nordeste 26 Nordeste 0 -- -- 31
2020-09-11 22:00:00 21.7 10 Nordeste 13 Nordeste 0 -- -- 37
2020-09-11 21:00:00 23.8 5 Este 14 Norte 0 -- -- 35
2020-09-11 20:00:00 26.7 13 Norte 20 Norte 0 -- -- 31
2020-09-11 19:00:00 28.6 9 Nordeste 20 Norte 0 -- -- 26
2020-09-11 18:00:00 29.7 12 Noroeste 23 Norte 0 -- -- 26
2020-09-11 17:00:00 29.7 9 Norte 26 Norte 0 -- -- 26
2020-09-11 16:00:00 28.9 8 Noroeste 19 Norte 0 -- -- 27
2020-09-11 15:00:00 28.8 7 Sudeste 26 Nordeste 0 -- -- 28
2020-09-11 14:00:00 27.5 4 Norte 17 Norte 0 -- -- 30
2020-09-11 13:00:00 26.7 4 Noroeste 19 Noroeste 0 -- -- 31
2020-09-11 12:00:00 24.8 5 Norte 12 Noroeste 0 -- -- 34
2020-09-11 11:00:00 22 5 Norte 9 Norte 0 -- -- 38
2020-09-11 10:00:00 19.6 4 Este 6 Este 0 -- -- 44
2020-09-11 09:00:00 13.9 3 Sudeste 9 Sudeste 0 -- -- 57
2020-09-11 08:00:00 11.9 7 Sudeste 13 Sudeste 0 -- -- 60
2020-09-11 07:00:00 12.2 10 Sudeste 13 Sudeste 0 -- -- 59
2020-09-11 06:00:00 12.3 3 Sudeste 13 Sudeste 0 -- -- 57
2020-09-11 05:00:00 12.9 6 Este 10 Sudeste 0 -- -- 56
2020-09-11 04:00:00 14.8 4 Sudeste 21 Sudeste 0 -- -- 51
2020-09-11 03:00:00 14.7 17 Sudeste 19 Sudeste 0 -- -- 53
2020-09-11 02:00:00 16.5 15 Sudeste 19 Este 0 -- -- 48
2020-09-11 01:00:00 18.5 18 Este 22 Este 0 -- -- 44
2020-09-11 00:00:00 18.2 17 Este 27 Este 0 -- -- 44
2020-09-10 23:00:00 20.4 14 Nordeste 18 Nordeste 0 -- -- 40
2020-09-10 22:00:00 21.8 9 Nordeste 13 Nordeste 0 -- -- 36
2020-09-10 21:00:00 23.5 6 Norte 15 Norte 0 -- -- 31
2020-09-10 20:00:00 26.5 13 Norte 20 Norte 0 -- -- 28
2020-09-10 19:00:00 27.9 10 Nordeste 21 Norte 0 -- -- 25
2020-09-10 18:00:00 28.2 9 Norte 28 Noroeste 0 -- -- 26
2020-09-10 17:00:00 27.8 15 Norte 27 Noroeste 0 -- -- 28
2020-09-10 16:00:00 27.5 11 Noroeste 23 Norte 0 -- -- 31
2020-09-10 15:00:00 27.6 12 Norte 22 Este 0 -- -- 32
2020-09-10 14:00:00 26.9 5 Oeste 22 Norte 0 -- -- 33
2020-09-10 13:00:00 25.1 9 Norte 19 Norte 0 -- -- 39
2020-09-10 12:00:00 22.8 9 Norte 16 Norte 0 -- -- 43
2020-09-10 11:00:00 18.6 6 Norte 9 Norte 0 -- -- 48
2020-09-10 10:00:00 14.7 3 Noroeste 7 Oeste 0 -- -- 58
2020-09-10 09:00:00 12.5 4 Oeste 14 Sudeste 0 -- -- 60
2020-09-10 08:00:00 10.5 14 Sudeste 21 Sudeste 0 -- -- 63
2020-09-10 07:00:00 9.9 6 Este 9 Este 0 -- -- 67
2020-09-10 06:00:00 12.4 2 Este 6 Sudeste 0 -- -- 62
2020-09-10 05:00:00 13.2 2 Nordeste 6 Oeste 0 -- -- 56
2020-09-10 04:00:00 13.4 4 Nordeste 5 Nordeste 0 -- -- 57
2020-09-10 03:00:00 14.8 0 Calma 8 Sudoeste 0 -- -- 52
2020-09-10 02:00:00 16 2 Norte 15 Este 0 -- -- 50
2020-09-10 01:00:00 18 15 Este 24 Nordeste 0 -- -- 47
2020-09-10 00:00:00 18.7 15 Nordeste 22 Nordeste 0 -- -- 43
2020-09-09 23:00:00 19.6 9 Nordeste 12 Nordeste 0 -- -- 37
2020-09-09 22:00:00 21.6 5 Norte 9 Noroeste 0 -- -- 32
2020-09-09 21:00:00 23.5 4 Norte 14 Norte 0 -- -- 30
2020-09-09 20:00:00 26.2 10 Norte 21 Noroeste 0 -- -- 26
2020-09-09 19:00:00 27.5 11 Noroeste 22 Norte 0 -- -- 26
2020-09-09 18:00:00 27.7 11 Norte 28 Noroeste 0 -- -- 24
2020-09-09 17:00:00 27.8 10 Noroeste 24 Nordeste 0 -- -- 25
2020-09-09 16:00:00 27.7 8 Este 25 Este 0 -- -- 25
2020-09-09 15:00:00 26.8 12 Sudeste 21 Este 0 -- -- 26
2020-09-09 14:00:00 26.7 10 Este 18 Este 0 -- -- 27
2020-09-09 13:00:00 25.4 8 Este 18 Este 0 -- -- 28
2020-09-09 12:00:00 23.7 9 Sudeste 19 Sudeste 0 -- -- 31
2020-09-09 11:00:00 21.1 15 Sudeste 22 Este 0 -- -- 36
2020-09-09 10:00:00 18.3 13 Sudeste 19 Este 0 -- -- 43
2020-09-09 09:00:00 14.3 5 Sudeste 14 Sudeste 0 -- -- 48
2020-09-09 08:00:00 10.7 13 Sudeste 16 Sudeste 0 -- -- 55
2020-09-09 07:00:00 9 9 Sudeste 16 Sudeste 0 -- -- 59
2020-09-09 06:00:00 11 7 Sudeste 11 Sudeste 0 -- -- 53
2020-09-09 05:00:00 13.2 2 Sudoeste 4 Oeste 0 -- -- 46
2020-09-09 04:00:00 14.1 2 Noroeste 13 Sudoeste 0 -- -- 44
2020-09-09 03:00:00 13.3 8 Sudoeste 10 Sudoeste 0 -- -- 46
2020-09-09 02:00:00 13.6 9 Sudeste 12 Sudeste 0 -- -- 45
2020-09-09 01:00:00 13.6 8 Este 15 Nordeste 0 -- -- 46
2020-09-09 00:00:00 17.6 7 Sudeste 24 Sur 0 -- -- 37
2020-09-08 23:00:00 19.5 15 Sur 26 Sur 0 -- -- 34
2020-09-08 22:00:00 19.9 16 Sur 27 Sur 0 -- -- 32
2020-09-08 21:00:00 21.3 18 Sur 23 Sur 0 -- -- 29
2020-09-08 20:00:00 25.7 7 Oeste 13 Sudoeste 0 -- -- 21
2020-09-08 19:00:00 26.3 10 Oeste 19 Oeste 0 -- -- 21
2020-09-08 18:00:00 26.7 8 Sudoeste 20 Sudeste 0 -- -- 21
2020-09-08 17:00:00 26.2 5 Nordeste 17 Este 0 -- -- 22
2020-09-08 16:00:00 25.5 9 Este 19 Este 0 -- -- 23
2020-09-08 15:00:00 24.1 7 Nordeste 15 Nordeste 0 -- -- 26
2020-09-08 14:00:00 21.7 7 Noroeste 20 Sur 0 -- -- 28
2020-09-08 13:00:00 20 4 Norte 14 Nordeste 0 -- -- 36
2020-09-08 12:00:00 17.7 6 Norte 15 Nordeste 0 -- -- 42
2020-09-08 11:00:00 13.6 6 Norte 9 Norte 0 -- -- 54
2020-09-08 10:00:00 9.8 3 Noroeste 6 Oeste 0 -- -- 67
2020-09-08 09:00:00 6.7 2 Norte 14 Sudeste 0 -- -- 76
2020-09-08 08:00:00 4.8 10 Sudeste 14 Sudeste 0 -- -- 83
2020-09-08 07:00:00 5.2 9 Sudeste 13 Este 0 -- -- 80
2020-09-08 06:00:00 6.9 3 Norte 5 Norte 0 -- -- 77
2020-09-08 05:00:00 7.4 3 Norte 5 Norte 0 -- -- 76
2020-09-08 04:00:00 8.6 3 Norte 9 Nordeste 0 -- -- 71
2020-09-08 03:00:00 9.3 6 Este 16 Nordeste 0 -- -- 68
2020-09-08 02:00:00 10.2 10 Norte 19 Norte 0 -- -- 64
2020-09-08 01:00:00 11.3 10 Norte 19 Norte 0 -- -- 59
2020-09-08 00:00:00 12.2 10 Norte 15 Norte 0 -- -- 55
2020-09-07 23:00:00 13.9 11 Norte 24 Nordeste 0 -- -- 50
2020-09-07 22:00:00 16 17 Nordeste 28 Norte 0 -- -- 44
2020-09-07 21:00:00 17.6 13 Norte 30 Norte 0 -- -- 42
2020-09-07 20:00:00 20.6 24 Norte 45 Norte 0 -- -- 36
2020-09-07 19:00:00 22.1 23 Norte 35 Norte 0 -- -- 34
2020-09-07 18:00:00 22.8 18 Noroeste 37 Norte 0 -- -- 33
2020-09-07 17:00:00 23.5 18 Norte 30 Norte 0 -- -- 31
2020-09-07 16:00:00 23 14 Norte 34 Norte 0 -- -- 34
2020-09-07 15:00:00 21.7 13 Norte 28 Nordeste 0 -- -- 37
2020-09-07 14:00:00 20.5 17 Nordeste 32 Nordeste 0 -- -- 38
2020-09-07 13:00:00 19.1 19 Nordeste 34 Norte 0 -- -- 40
2020-09-07 12:00:00 16.9 16 Norte 31 Norte 0 -- -- 48
2020-09-07 11:00:00 15 15 Nordeste 28 Nordeste 0 -- -- 56
2020-09-07 10:00:00 13.3 14 Nordeste 22 Nordeste 0 -- -- 64
2020-09-07 09:00:00 11.3 5 Nordeste 11 Nordeste 0 -- -- 72
2020-09-07 08:00:00 9.4 0 Calma 3 Nordeste 0 -- -- 78
2020-09-07 07:00:00 9.7 2 Norte 5 Norte 0 -- -- 77
2020-09-07 06:00:00 10 2 Oeste 4 Oeste 0 -- -- 78
2020-09-07 05:00:00 10.3 4 Oeste 6 Oeste 0 -- -- 78
2020-09-07 04:00:00 10.8 4 Noroeste 8 Noroeste 0 -- -- 75
2020-09-07 03:00:00 11.5 4 Noroeste 13 Norte 0 -- -- 72
2020-09-07 02:00:00 12.5 11 Norte 18 Norte 0 -- -- 68
2020-09-07 01:00:00 13 10 Norte 21 Norte 0 -- -- 65
2020-09-07 00:00:00 13.9 12 Norte 24 Nordeste 0 -- -- 62
2020-09-06 23:00:00 15.1 9 Nordeste 23 Norte 0 -- -- 58
2020-09-06 22:00:00 17.4 17 Norte 29 Norte 0 -- -- 51
2020-09-06 21:00:00 20 16 Norte 33 Norte 0 -- -- 46
2020-09-06 20:00:00 23.4 23 Norte 33 Norte 0 -- -- 40
2020-09-06 19:00:00 26.2 24 Norte 35 Norte 0 -- -- 36
2020-09-06 18:00:00 28.5 20 Norte 33 Norte 0 -- -- 34
2020-09-06 17:00:00 28.7 12 Norte 31 Noroeste 0 -- -- 35
2020-09-06 16:00:00 28.4 13 Noroeste 24 Noroeste 0 -- -- 34
2020-09-06 15:00:00 27.5 11 Noroeste 22 Noroeste 0 -- -- 37
2020-09-06 14:00:00 26.3 6 Norte 19 Norte 0 -- -- 40
2020-09-06 13:00:00 23.8 9 Noroeste 15 Noroeste 0 -- -- 49
2020-09-06 12:00:00 21.4 5 Noroeste 12 Norte 0 -- -- 56
2020-09-06 11:00:00 18.8 4 Norte 9 Nordeste 0 -- -- 63
2020-09-06 10:00:00 15.2 6 Nordeste 11 Norte 0 -- -- 76
2020-09-06 09:00:00 13.2 0 Calma 4 Noroeste 0 -- -- 86
2020-09-06 08:00:00 12.4 2 Oeste 6 Nordeste 0 -- -- 85
2020-09-06 07:00:00 12.8 0 Calma 5 Norte 0 -- -- 83
2020-09-06 06:00:00 13 3 Norte 7 Norte 0 -- -- 83
2020-09-06 05:00:00 13.9 4 Noroeste 9 Norte 0 -- -- 79
2020-09-06 04:00:00 14.7 3 Noroeste 10 Sudeste 0 -- -- 76
2020-09-06 03:00:00 15.1 2 Nordeste 9 Norte 0 -- -- 74
2020-09-06 02:00:00 15.9 4 Norte 14 Norte 0 -- -- 71
2020-09-06 01:00:00 16.6 12 Norte 15 Norte 0 -- -- 69
2020-09-06 00:00:00 18.3 9 Norte 18 Nordeste 0 -- -- 62
2020-09-05 23:00:00 20.3 13 Nordeste 24 Nordeste 0 -- -- 56
2020-09-05 22:00:00 22.3 13 Nordeste 32 Norte 0 -- -- 48
2020-09-05 21:00:00 25.2 18 Norte 38 Norte 0 -- -- 40
2020-09-05 20:00:00 29.2 23 Norte 36 Norte 0 -- -- 29
2020-09-05 19:00:00 31.9 9 Norte 22 Norte 0 -- -- 22
2020-09-05 18:00:00 32.8 8 Sudoeste 20 Oeste 0 -- -- 22
2020-09-05 17:00:00 32.5 8 Este 25 Sur 0 -- -- 22
2020-09-05 16:00:00 31.5 11 Oeste 19 Noroeste 0 -- -- 24
2020-09-05 15:00:00 31.8 16 Nordeste 23 Nordeste 0 -- -- 23
2020-09-05 14:00:00 30.1 7 Norte 15 Noroeste 0 -- -- 27
2020-09-05 13:00:00 28.4 5 Nordeste 15 Noroeste 0 -- -- 30
2020-09-05 12:00:00 25.8 6 Oeste 12 Oeste 0 -- -- 34
2020-09-05 11:00:00 23.2 4 Oeste 12 Sudoeste 0 -- -- 39
2020-09-05 10:00:00 21 9 Oeste 13 Oeste 0 -- -- 42
2020-09-05 09:00:00 18.6 6 Sudoeste 16 Sudoeste 0 -- -- 47
2020-09-05 08:00:00 18.2 12 Sur 17 Sudoeste 0 -- -- 46
2020-09-05 07:00:00 20.3 12 Sudoeste 23 Sur 0 -- -- 40
2020-09-05 06:00:00 21.3 16 Sur 25 Sur 0 -- -- 37
2020-09-05 05:00:00 21 17 Sur 22 Sur 0 -- -- 38
2020-09-05 04:00:00 22.7 12 Sudoeste 22 Sur 0 -- -- 36
2020-09-05 03:00:00 22.2 17 Sur 27 Sur 0 -- -- 36
2020-09-05 02:00:00 23 19 Sur 27 Oeste 0 -- -- 35
2020-09-05 01:00:00 21 14 Sudeste 27 Sudeste 0 -- -- 39
2020-09-05 00:00:00 23.1 20 Sudeste 31 Sudeste 0 -- -- 35
2020-09-04 23:00:00 23.4 15 Sur 19 Sur 0 -- -- 35
2020-09-04 22:00:00 26.1 11 Sudoeste 22 Oeste 0 -- -- 30
2020-09-04 21:00:00 26.7 16 Sur 20 Sur 0 -- -- 29
2020-09-04 20:00:00 30.7 10 Sur 16 Sur 0 -- -- 22
2020-09-04 19:00:00 31.7 11 Sur 26 Sudoeste 0 -- -- 22
2020-09-04 18:00:00 32.1 15 Sur 29 Sudoeste 0 -- -- 22
2020-09-04 17:00:00 31.9 13 Sur 30 Sur 0 -- -- 23
2020-09-04 16:00:00 31.6 18 Sur 32 Sur 0 -- -- 25
2020-09-04 15:00:00 31.9 15 Sur 32 Sudoeste 0 -- -- 24
2020-09-04 14:00:00 30.7 7 Sudoeste 34 Sudoeste 0 -- -- 25
2020-09-04 13:00:00 29.5 16 Sudoeste 25 Sudoeste 0 -- -- 27
2020-09-04 12:00:00 28.8 15 Sur 27 Sur 0 -- -- 29
2020-09-04 11:00:00 26.5 22 Sur 33 Sudeste 0 -- -- 38
2020-09-04 10:00:00 24.3 26 Sudeste 36 Sudeste 0 -- -- 43
2020-09-04 09:00:00 21.6 28 Sudeste 40 Sur 0 -- -- 48
2020-09-04 08:00:00 19.3 29 Sudeste 41 Sudeste 0 -- -- 52
2020-09-04 07:00:00 17.2 25 Sudeste 30 Sudeste 0 -- -- 48
2020-09-04 06:00:00 17.7 26 Sudeste 31 Sudeste 0 -- -- 43
2020-09-04 05:00:00 18.3 24 Sudeste 31 Sudeste 0 -- -- 40
2020-09-04 04:00:00 17.3 17 Sudeste 25 Sudeste 0 -- -- 44
2020-09-04 03:00:00 17.1 18 Sudeste 24 Sudeste 0 -- -- 45
2020-09-04 02:00:00 19.6 9 Sudeste 19 Sur 0 -- -- 38
2020-09-04 01:00:00 19.8 14 Sudeste 19 Sudeste 0 -- -- 38
2020-09-04 00:00:00 20.3 15 Sudeste 21 Sudeste 0 -- -- 34
2020-09-03 23:00:00 20.2 16 Sudeste 22 Este 0 -- -- 31
2020-09-03 22:00:00 24 4 Nordeste 9 Norte 0 -- -- 25
2020-09-03 21:00:00 26.9 0 Calma 9 Noroeste 0 -- -- 22
2020-09-03 20:00:00 30.1 6 Noroeste 14 Noroeste 0 -- -- 19
2020-09-03 19:00:00 31.1 5 Noroeste 15 Este 0 -- -- 17
2020-09-03 18:00:00 30.8 7 Norte 18 Noroeste 0 -- -- 16
2020-09-03 17:00:00 30.7 4 Este 18 Sudeste 0 -- -- 19
2020-09-03 16:00:00 29.8 6 Este 22 Nordeste 0 -- -- 20
2020-09-03 15:00:00 29.1 12 Este 20 Este 0 -- -- 21
2020-09-03 14:00:00 27 9 Norte 14 Nordeste 0 -- -- 25
2020-09-03 13:00:00 26.2 9 Nordeste 17 Nordeste 0 -- -- 28
2020-09-03 12:00:00 24.6 10 Norte 16 Nordeste 0 -- -- 33
2020-09-03 11:00:00 22.3 3 Nordeste 8 Este 0 -- -- 36
2020-09-03 10:00:00 16.8 3 Norte 5 Norte 0 -- -- 45
2020-09-03 09:00:00 14.2 5 Sudeste 9 Sudeste 0 -- -- 53
2020-09-03 08:00:00 11.1 6 Sur 20 Sudeste 0 -- -- 59
2020-09-03 07:00:00 11.3 19 Sudeste 21 Sudeste 0 -- -- 58
2020-09-03 06:00:00 11.4 17 Sudeste 19 Sudeste 0 -- -- 57
2020-09-03 05:00:00 12.5 11 Sudeste 17 Sudeste 0 -- -- 54
2020-09-03 04:00:00 13.1 12 Sudeste 19 Sudeste 0 -- -- 53
2020-09-03 03:00:00 13.7 13 Sudeste 17 Sudeste 0 -- -- 51
2020-09-03 02:00:00 15.1 16 Sudeste 19 Este 0 -- -- 48
2020-09-03 01:00:00 16.6 18 Este 20 Este 0 -- -- 45
2020-09-03 00:00:00 17.7 17 Este 24 Este 0 -- -- 44
2020-09-02 23:00:00 18.9 15 Nordeste 21 Nordeste 0 -- -- 40
2020-09-02 22:00:00 20.8 9 Nordeste 13 Norte 0 -- -- 35
2020-09-02 21:00:00 23 8 Norte 14 Noroeste 0 -- -- 31
2020-09-02 20:00:00 25.9 9 Noroeste 19 Noroeste 0 -- -- 28
2020-09-02 19:00:00 26.5 15 Norte 23 Noroeste 0 -- -- 28
2020-09-02 18:00:00 27 13 Nordeste 30 Noroeste 0 -- -- 26
2020-09-02 17:00:00 26.7 10 Nordeste 30 Norte 0 -- -- 26
2020-09-02 16:00:00 26.4 10 Nordeste 22 Norte 0 -- -- 27
2020-09-02 15:00:00 25.9 9 Noroeste 23 Noroeste 0 -- -- 28
2020-09-02 14:00:00 24.6 8 Noroeste 20 Norte 0 -- -- 30
2020-09-02 13:00:00 23.6 6 Norte 18 Norte 0 -- -- 33
2020-09-02 12:00:00 21.2 8 Nordeste 15 Norte 0 -- -- 37
2020-09-02 11:00:00 16.2 5 Noroeste 9 Noroeste 0 -- -- 46
2020-09-02 10:00:00 12.8 2 Norte 13 Sudeste 0 -- -- 55
2020-09-02 09:00:00 10.3 12 Sudeste 17 Sudeste 0 -- -- 60
2020-09-02 08:00:00 9 0 Calma 6 Nordeste 0 -- -- 68
2020-09-02 07:00:00 9.6 4 Nordeste 9 Nordeste 0 -- -- 69
2020-09-02 06:00:00 10.2 4 Norte 9 Nordeste 0 -- -- 65
2020-09-02 05:00:00 11.6 6 Nordeste 9 Nordeste 0 -- -- 61
2020-09-02 04:00:00 12 3 Nordeste 10 Nordeste 0 -- -- 58
2020-09-02 03:00:00 12.9 7 Nordeste 10 Nordeste 0 -- -- 55
2020-09-02 02:00:00 13.3 8 Nordeste 15 Nordeste 0 -- -- 53
2020-09-02 01:00:00 14.1 13 Nordeste 17 Nordeste 0 -- -- 50
2020-09-02 00:00:00 16.2 15 Nordeste 24 Nordeste 0 -- -- 43
2020-09-01 23:00:00 17.7 15 Nordeste 23 Nordeste 0 -- -- 37
2020-09-01 22:00:00 20.5 7 Nordeste 12 Nordeste 0 -- -- 30
2020-09-01 21:00:00 22.7 8 Norte 12 Noroeste 0 -- -- 27
2020-09-01 20:00:00 24.8 9 Noroeste 39 Norte 0 -- -- 25
2020-09-01 19:00:00 25.6 5 Norte 22 Noroeste 0 -- -- 23
2020-09-01 18:00:00 26.2 5 Sudeste 22 Norte 0 -- -- 21
2020-09-01 17:00:00 26.7 9 Oeste 26 Nordeste 0 -- -- 20
2020-09-01 16:00:00 26.3 9 Este 25 Sudeste 0 -- -- 21
2020-09-01 15:00:00 25.8 4 Oeste 18 Este 0 -- -- 23
2020-09-01 14:00:00 24.4 9 Sur 21 Noroeste 0 -- -- 24
2020-09-01 13:00:00 23.3 8 Nordeste 17 Este 0 -- -- 26
2020-09-01 12:00:00 21.1 3 Este 12 Sudoeste 0 -- -- 29
2020-09-01 11:00:00 18.2 5 Sudeste 14 Sudeste 0 -- -- 34
2020-09-01 10:00:00 15.9 4 Sudeste 7 Este 0 -- -- 38
2020-09-01 09:00:00 12.7 5 Este 10 Sudeste 0 -- -- 50
2020-09-01 08:00:00 11.1 5 Sudeste 20 Sudeste 0 -- -- 52
2020-09-01 07:00:00 12.6 12 Sudeste 17 Sudeste 0 -- -- 46
2020-09-01 06:00:00 12.7 10 Sudeste 13 Sudeste 0 -- -- 45
2020-09-01 05:00:00 13.2 4 Este 18 Sudeste 0 -- -- 43
2020-09-01 04:00:00 13.6 15 Sudeste 20 Este 0 -- -- 41
2020-09-01 03:00:00 13.1 15 Sudeste 21 Sudeste 0 -- -- 42
2020-09-01 02:00:00 13.6 16 Sudeste 21 Sudeste 0 -- -- 42
2020-09-01 01:00:00 13.7 15 Sudeste 19 Sudeste 0 -- -- 40
2020-09-01 00:00:00 16.3 5 Este 9 Este 0 -- -- 32
2020-08-31 23:00:00 16.9 6 Nordeste 10 Nordeste 0 -- -- 31
2020-08-31 22:00:00 17.8 8 Norte 10 Norte 0 -- -- 32
2020-08-31 21:00:00 19.8 9 Noroeste 14 Noroeste 0 -- -- 28
2020-08-31 20:00:00 22.5 12 Oeste 22 Oeste 0 -- -- 24
2020-08-31 19:00:00 23.6 13 Oeste 24 Noroeste 0 -- -- 23
2020-08-31 18:00:00 23.3 13 Sudoeste 35 Noroeste 0 -- -- 23
2020-08-31 17:00:00 23.1 7 Noroeste 25 Sudoeste 0 -- -- 25
2020-08-31 16:00:00 22.8 10 Sudoeste 25 Oeste 0 -- -- 26
2020-08-31 15:00:00 22.4 11 Oeste 26 Sudoeste 0 -- -- 26
2020-08-31 14:00:00 22 8 Noroeste 17 Oeste 0 -- -- 28
2020-08-31 13:00:00 19.9 9 Noroeste 19 Oeste 0 -- -- 31
2020-08-31 12:00:00 19.6 8 Sudeste 19 Este 0 -- -- 33
2020-08-31 11:00:00 17.6 8 Este 15 Este 0 -- -- 38
2020-08-31 10:00:00 13.5 3 Este 13 Sudeste 0 -- -- 46
2020-08-31 09:00:00 9.2 9 Sudeste 19 Sudeste 0 -- -- 57
2020-08-31 08:00:00 6.9 16 Sudeste 23 Sudeste 0 -- -- 63
2020-08-31 07:00:00 6.2 11 Sudeste 15 Sudeste 0 -- -- 65
2020-08-31 06:00:00 6.2 13 Sudeste 17 Sudeste 0 -- -- 67
2020-08-31 05:00:00 7.2 15 Sudeste 19 Sudeste 0 -- -- 67
2020-08-31 04:00:00 7.3 11 Sudeste 18 Sudeste 0 -- -- 66
2020-08-31 03:00:00 7.6 6 Sudeste 9 Sudeste 0 -- -- 69
2020-08-31 02:00:00 9.6 9 Este 22 Este 0 -- -- 63
2020-08-31 01:00:00 9.8 14 Este 26 Nordeste 0 -- -- 64
2020-08-31 00:00:00 11.7 17 Nordeste 27 Nordeste 0 -- -- 59
2020-08-30 23:00:00 12.4 15 Nordeste 20 Nordeste 0 -- -- 54
2020-08-30 22:00:00 13.7 14 Nordeste 17 Nordeste 0 -- -- 46
2020-08-30 21:00:00 15.4 12 Nordeste 24 Nordeste 0 -- -- 41
2020-08-30 20:00:00 18.4 14 Norte 27 Norte 0 -- -- 33
2020-08-30 19:00:00 18.8 16 Nordeste 29 Nordeste 0 -- -- 33
2020-08-30 18:00:00 19.2 20 Nordeste 28 Nordeste 0 -- -- 34
2020-08-30 17:00:00 18.4 10 Nordeste 27 Este 0 -- -- 38
2020-08-30 16:00:00 18.5 16 Nordeste 28 Norte 0 -- -- 41
2020-08-30 15:00:00 17.5 11 Norte 20 Norte 0 -- -- 43
2020-08-30 14:00:00 15.4 10 Nordeste 26 Nordeste 0 -- -- 51
2020-08-30 13:00:00 14.9 12 Norte 22 Nordeste 0 -- -- 54
2020-08-30 12:00:00 13.4 13 Nordeste 29 Nordeste 0 -- -- 60
2020-08-30 11:00:00 12.4 18 Nordeste 26 Norte 0 -- -- 66
2020-08-30 10:00:00 10 5 Norte 12 Norte 0 -- -- 81
2020-08-30 09:00:00 8.3 0 Calma 2 Este 0 -- -- 85
2020-08-30 08:00:00 5.4 0 Calma 4 Sur 0 -- -- 90
2020-08-30 07:00:00 5.8 0 Calma 5 Sudoeste 0 -- -- 85
2020-08-30 06:00:00 6.9 2 Oeste 3 Oeste 0 -- -- 85
2020-08-30 05:00:00 7.4 2 Oeste 5 Oeste 0 -- -- 82
2020-08-30 04:00:00 8.1 3 Noroeste 9 Este 0 -- -- 82
2020-08-30 03:00:00 8.7 5 Nordeste 13 Nordeste 0 -- -- 80
2020-08-30 02:00:00 8.4 10 Nordeste 21 Nordeste 0 -- -- 79
2020-08-30 01:00:00 9.5 18 Nordeste 25 Nordeste 0 -- -- 77
2020-08-30 00:00:00 10.3 15 Nordeste 24 Nordeste 0 -- -- 78
2020-08-29 23:00:00 11.5 16 Norte 27 Norte 0 -- -- 72
2020-08-29 22:00:00 12.5 13 Nordeste 31 Norte 0 -- -- 73
2020-08-29 21:00:00 13.6 16 Norte 41 Noroeste 0.6 -- -- 70
2020-08-29 20:00:00 16.2 30 Norte 46 Norte 0.2 -- -- 55
2020-08-29 19:00:00 19.9 33 Noroeste 42 Noroeste 0 -- -- 35
2020-08-29 18:00:00 20.2 28 Noroeste 40 Noroeste 0 -- -- 35
2020-08-29 17:00:00 19.4 26 Noroeste 44 Oeste 0 -- -- 40
2020-08-29 16:00:00 19.4 32 Oeste 44 Oeste 0 -- -- 41
2020-08-29 15:00:00 17.7 26 Noroeste 39 Oeste 0 -- -- 42
2020-08-29 14:00:00 17.8 26 Noroeste 41 Noroeste 0 -- -- 44
2020-08-29 13:00:00 16.9 18 Noroeste 32 Noroeste 0 -- -- 47
2020-08-29 12:00:00 15.3 19 Noroeste 31 Noroeste 0 -- -- 52
2020-08-29 11:00:00 14.1 13 Noroeste 24 Noroeste 0 -- -- 57
2020-08-29 10:00:00 12.3 10 Noroeste 15 Noroeste 0 -- -- 65
2020-08-29 09:00:00 10.4 7 Noroeste 10 Noroeste 0 -- -- 77
2020-08-29 08:00:00 9.1 4 Oeste 9 Oeste 0 -- -- 84
2020-08-29 07:00:00 8.7 4 Nordeste 8 Norte 0 -- -- 82
2020-08-29 06:00:00 9.5 3 Norte 7 Norte 0 -- -- 80
2020-08-29 05:00:00 10.3 4 Noroeste 9 Noroeste 0 -- -- 77
2020-08-29 04:00:00 10.9 5 Noroeste 10 Noroeste 0 -- -- 76
2020-08-29 03:00:00 11.5 7 Noroeste 14 Noroeste 0 -- -- 74
2020-08-29 02:00:00 11.8 9 Noroeste 18 Norte 0 -- -- 74
2020-08-29 01:00:00 12.7 12 Norte 30 Norte 0 -- -- 71
2020-08-29 00:00:00 14.2 18 Norte 27 Norte 0 -- -- 71
2020-08-28 23:00:00 17.4 20 Noroeste 36 Noroeste 0 -- -- 59
2020-08-28 22:00:00 19.8 19 Noroeste 31 Oeste 0 -- -- 40
2020-08-28 21:00:00 21.7 25 Oeste 41 Oeste 0 -- -- 28
2020-08-28 20:00:00 24.5 31 Oeste 46 Oeste 0 -- -- 21
2020-08-28 19:00:00 26.1 27 Oeste 45 Oeste 0 -- -- 22
2020-08-28 18:00:00 26.6 27 Oeste 45 Oeste 0 -- -- 20
2020-08-28 17:00:00 26.6 22 Oeste 43 Oeste 0 -- -- 20
2020-08-28 16:00:00 26.4 23 Oeste 44 Oeste 0 -- -- 25
2020-08-28 15:00:00 24.8 17 Oeste 36 Oeste 0 -- -- 42
2020-08-28 14:00:00 24.2 17 Oeste 34 Oeste 0 -- -- 45
2020-08-28 13:00:00 22.4 15 Sudoeste 30 Sudoeste 0 -- -- 57
2020-08-28 12:00:00 20.4 13 Oeste 31 Oeste 0 -- -- 66
2020-08-28 11:00:00 19.1 11 Oeste 28 Oeste 0 -- -- 72
2020-08-28 10:00:00 18.3 15 Oeste 22 Oeste 0 -- -- 74
2020-08-28 09:00:00 16.9 13 Sudoeste 20 Sudoeste 0 -- -- 78
2020-08-28 08:00:00 16.1 15 Sudoeste 24 Sudoeste 0 -- -- 76
2020-08-28 07:00:00 17.4 16 Sudoeste 22 Sudoeste 0 -- -- 72
2020-08-28 06:00:00 17.5 12 Sudoeste 16 Sudoeste 0 -- -- 72
2020-08-28 05:00:00 18.1 12 Oeste 21 Sudoeste 0 -- -- 69
2020-08-28 04:00:00 19.3 17 Sudoeste 22 Sudoeste 0 -- -- 62
2020-08-28 03:00:00 20.7 14 Sudoeste 18 Sudoeste 0 -- -- 57
2020-08-28 02:00:00 21.2 13 Sudoeste 17 Oeste 0 -- -- 53
2020-08-28 01:00:00 22.2 9 Oeste 15 Oeste 0 -- -- 48
2020-08-28 00:00:00 23.1 12 Oeste 20 Oeste 0 -- -- 42
2020-08-27 23:00:00 25.7 9 Oeste 13 Noroeste 0 -- -- 36
2020-08-27 22:00:00 27.2 3 Norte 10 Noroeste 0 -- -- 35
2020-08-27 21:00:00 28.5 9 Oeste 22 Oeste 0 -- -- 34
2020-08-27 20:00:00 31.4 15 Oeste 25 Oeste 0 -- -- 28
2020-08-27 19:00:00 32.3 19 Oeste 29 Oeste 0 -- -- 26
2020-08-27 18:00:00 32.7 15 Oeste 26 Sudoeste 0 -- -- 26
2020-08-27 17:00:00 32.6 15 Noroeste 27 Noroeste 0 -- -- 29
2020-08-27 16:00:00 32.2 13 Oeste 28 Oeste 0 -- -- 28
2020-08-27 15:00:00 31.9 4 Sudoeste 22 Oeste 0 -- -- 32
2020-08-27 14:00:00 29.8 9 Oeste 17 Oeste 0 -- -- 37
2020-08-27 13:00:00 28.6 7 Noroeste 26 Oeste 0 -- -- 41
2020-08-27 12:00:00 26.8 9 Oeste 17 Oeste 0 -- -- 43
2020-08-27 11:00:00 24.2 11 Oeste 18 Oeste 0 -- -- 49
2020-08-27 10:00:00 21.8 10 Sudoeste 17 Oeste 0 -- -- 54
2020-08-27 09:00:00 20.8 10 Sudoeste 16 Sur 0 -- -- 54
2020-08-27 08:00:00 19.8 14 Sur 23 Sur 0 -- -- 54
2020-08-27 07:00:00 18.6 9 Sur 21 Sur 0 -- -- 58
2020-08-27 06:00:00 20.3 13 Sur 24 Sudoeste 0 -- -- 52
2020-08-27 05:00:00 21 17 Sudoeste 21 Sudoeste 0 -- -- 45
2020-08-27 04:00:00 22 16 Sudoeste 22 Sur 0 -- -- 42
2020-08-27 03:00:00 23 19 Sudoeste 22 Sudoeste 0 -- -- 38
2020-08-27 02:00:00 21.9 10 Sur 20 Oeste 0 -- -- 38
2020-08-27 01:00:00 21.5 14 Sudeste 17 Sudeste 0 -- -- 39
2020-08-27 00:00:00 22.9 0 Calma 4 Sudeste 0 -- -- 35
2020-08-26 23:00:00 24.2 0 Calma 8 Oeste 0 -- -- 32
2020-08-26 22:00:00 26.7 2 Noroeste 14 Noroeste 0 -- -- 30
2020-08-26 21:00:00 28.9 12 Noroeste 24 Oeste 0 -- -- 28
2020-08-26 20:00:00 32.1 16 Oeste 30 Oeste 0 -- -- 24
2020-08-26 19:00:00 32.9 17 Oeste 27 Oeste 0 -- -- 24
2020-08-26 18:00:00 33.4 14 Noroeste 26 Oeste 0 -- -- 23
2020-08-26 17:00:00 33.1 13 Oeste 29 Oeste 0 -- -- 24
2020-08-26 16:00:00 32.4 17 Noroeste 30 Noroeste 0 -- -- 25
2020-08-26 15:00:00 32.1 19 Oeste 29 Oeste 0 -- -- 26
2020-08-26 14:00:00 31.3 10 Oeste 18 Oeste 0 -- -- 28
2020-08-26 13:00:00 29.2 6 Noroeste 14 Sudoeste 0 -- -- 30
2020-08-26 12:00:00 26.5 3 Oeste 9 Oeste 0 -- -- 38
2020-08-26 11:00:00 23.9 4 Noroeste 8 Norte 0 -- -- 44
2020-08-26 10:00:00 20.7 3 Oeste 6 Oeste 0 -- -- 49
2020-08-26 09:00:00 19 4 Oeste 7 Oeste 0 -- -- 50
2020-08-26 08:00:00 18 5 Sur 15 Sur 0 -- -- 52
2020-08-26 07:00:00 18.1 12 Sudoeste 15 Sur 0 -- -- 52
2020-08-26 06:00:00 17.2 8 Sudeste 17 Sur 0 -- -- 49
2020-08-26 05:00:00 20.3 13 Sur 27 Sudoeste 0 -- -- 42
2020-08-26 04:00:00 21.1 22 Sudoeste 37 Sudoeste 0 -- -- 39
2020-08-26 03:00:00 21.9 18 Sudoeste 22 Sudoeste 0 -- -- 34
2020-08-26 02:00:00 22.8 18 Sudoeste 21 Sudoeste 0 -- -- 31
2020-08-26 01:00:00 22.8 13 Sudoeste 16 Sudoeste 0 -- -- 29
2020-08-26 00:00:00 24.8 4 Oeste 8 Oeste 0 -- -- 30
2020-08-25 23:00:00 24.7 3 Sudeste 17 Oeste 0 -- -- 31
2020-08-25 22:00:00 28.1 8 Oeste 13 Oeste 0 -- -- 26
2020-08-25 21:00:00 29.9 7 Noroeste 21 Oeste 0 -- -- 25
2020-08-25 20:00:00 32.4 17 Oeste 26 Noroeste 0 -- -- 23
2020-08-25 19:00:00 33.2 19 Oeste 29 Sudoeste 0 -- -- 22
2020-08-25 18:00:00 33.5 10 Oeste 32 Oeste 0 -- -- 21
2020-08-25 17:00:00 33.2 13 Noroeste 32 Oeste 0 -- -- 22
2020-08-25 16:00:00 32.8 18 Oeste 36 Oeste 0 -- -- 22
2020-08-25 15:00:00 32.2 17 Oeste 32 Oeste 0 -- -- 23
2020-08-25 14:00:00 31.1 12 Oeste 36 Sudoeste 0 -- -- 26
2020-08-25 13:00:00 29.5 6 Sudoeste 14 Oeste 0 -- -- 28
2020-08-25 12:00:00 26.5 6 Noroeste 13 Oeste 0 -- -- 34
2020-08-25 11:00:00 23.8 7 Oeste 12 Oeste 0 -- -- 39
2020-08-25 10:00:00 20.6 2 Noroeste 6 Noroeste 0 -- -- 44
2020-08-25 09:00:00 19.4 2 Noroeste 19 Sudeste 0 -- -- 51
2020-08-25 08:00:00 15.4 17 Sudeste 22 Sudeste 0 -- -- 57
2020-08-25 07:00:00 15.6 14 Sudeste 18 Sudeste 0 -- -- 55
2020-08-25 06:00:00 16.4 13 Sudeste 19 Sudeste 0 -- -- 52
2020-08-25 05:00:00 16.7 14 Sudeste 21 Sudeste 0 -- -- 51
2020-08-25 04:00:00 17.6 16 Sudeste 25 Sudeste 0 -- -- 49
2020-08-25 03:00:00 17.8 17 Sudeste 21 Sudeste 0 -- -- 48
2020-08-25 02:00:00 18.6 17 Sudeste 20 Sudeste 0 -- -- 46
2020-08-25 01:00:00 19.7 15 Sudeste 18 Sudeste 0 -- -- 44
2020-08-25 00:00:00 20.4 11 Sudeste 14 Sudeste 0 -- -- 42
2020-08-24 23:00:00 23.1 4 Nordeste 10 Norte 0 -- -- 37
2020-08-24 22:00:00 24.8 7 Noroeste 10 Noroeste 0 -- -- 34
2020-08-24 21:00:00 27.5 7 Noroeste 14 Oeste 0 -- -- 30
2020-08-24 20:00:00 29.7 12 Noroeste 24 Oeste 0 -- -- 25
2020-08-24 19:00:00 30.7 15 Noroeste 26 Oeste 0 -- -- 23
2020-08-24 18:00:00 31.1 11 Oeste 25 Sudoeste 0 -- -- 20
2020-08-24 17:00:00 30.9 8 Oeste 22 Noroeste 0 -- -- 26
2020-08-24 16:00:00 30.6 9 Sudoeste 21 Noroeste 0 -- -- 26
2020-08-24 15:00:00 28.8 7 Noroeste 20 Oeste 0 -- -- 31
2020-08-24 14:00:00 28.3 6 Este 17 Nordeste 0 -- -- 33
2020-08-24 13:00:00 26.3 7 Norte 18 Noroeste 0 -- -- 36
2020-08-24 12:00:00 23.4 6 Oeste 12 Noroeste 0 -- -- 41
2020-08-24 11:00:00 20.2 6 Noroeste 9 Noroeste 0 -- -- 47
2020-08-24 10:00:00 17 3 Oeste 6 Noroeste 0 -- -- 56
2020-08-24 09:00:00 14.1 3 Este 8 Sudeste 0 -- -- 65
2020-08-24 08:00:00 10.7 6 Sudeste 8 Sudeste 0 -- -- 73
2020-08-24 07:00:00 12 0 Calma 9 Oeste 0 -- -- 68
2020-08-24 06:00:00 12.4 4 Sur 13 Sudeste 0 -- -- 66
2020-08-24 05:00:00 13.6 9 Sudeste 16 Sudeste 0 -- -- 63
2020-08-24 04:00:00 14 8 Sudeste 10 Sudeste 0 -- -- 64
2020-08-24 03:00:00 15.8 5 Nordeste 9 Nordeste 0 -- -- 58
2020-08-24 02:00:00 16.1 4 Este 8 Nordeste 0 -- -- 53
2020-08-24 01:00:00 17 5 Nordeste 15 Nordeste 0 -- -- 48
2020-08-24 00:00:00 19.1 13 Este 21 Nordeste 0 -- -- 45
2020-08-23 23:00:00 19.6 12 Nordeste 20 Nordeste 0 -- -- 39
2020-08-23 22:00:00 22.4 8 Nordeste 14 Nordeste 0 -- -- 33
2020-08-23 21:00:00 25.6 11 Norte 18 Noroeste 0 -- -- 29
2020-08-23 20:00:00 28.3 11 Norte 21 Noroeste 0 -- -- 26
2020-08-23 19:00:00 29.4 11 Norte 22 Noroeste 0 -- -- 23
2020-08-23 18:00:00 29.5 9 Noroeste 22 Noroeste 0 -- -- 24
2020-08-23 17:00:00 29.4 12 Norte 22 Norte 0 -- -- 25
2020-08-23 16:00:00 29 9 Oeste 25 Este 0 -- -- 27
2020-08-23 15:00:00 28.1 10 Norte 24 Norte 0 -- -- 29
2020-08-23 14:00:00 26.8 5 Noroeste 23 Norte 0 -- -- 34
2020-08-23 13:00:00 25.4 13 Norte 24 Norte 0 -- -- 34
2020-08-23 12:00:00 23.2 5 Norte 14 Norte 0 -- -- 37
2020-08-23 11:00:00 19.4 3 Noroeste 9 Oeste 0 -- -- 44
2020-08-23 10:00:00 16.1 5 Oeste 9 Noroeste 0 -- -- 54
2020-08-23 09:00:00 14.4 3 Este 5 Sudeste 0 -- -- 61
2020-08-23 08:00:00 10.2 2 Sudeste 6 Sudeste 0 -- -- 69
2020-08-23 07:00:00 10.6 0 Calma 5 Sudeste 0 -- -- 64
2020-08-23 06:00:00 10.7 2 Este 8 Sudeste 0 -- -- 65
2020-08-23 05:00:00 13.7 6 Sudoeste 10 Sudoeste 0 -- -- 51
2020-08-23 04:00:00 13.5 3 Sudoeste 6 Oeste 0 -- -- 52
2020-08-23 03:00:00 14.7 6 Sudeste 14 Sudeste 0 -- -- 51
2020-08-23 02:00:00 15.3 9 Sudeste 15 Sudeste 0 -- -- 46
2020-08-23 01:00:00 16.8 12 Sudeste 15 Sudeste 0 -- -- 40
2020-08-23 00:00:00 19.5 7 Nordeste 14 Norte 0 -- -- 34
2020-08-22 23:00:00 20.5 4 Noroeste 9 Noroeste 0 -- -- 32
2020-08-22 22:00:00 21.8 7 Noroeste 14 Noroeste 0 -- -- 31
2020-08-22 21:00:00 24.4 11 Noroeste 22 Oeste 0 -- -- 29
2020-08-22 20:00:00 27.4 11 Oeste 28 Oeste 0 -- -- 26
2020-08-22 19:00:00 27.9 15 Noroeste 27 Oeste 0 -- -- 25
2020-08-22 18:00:00 28.3 14 Oeste 26 Oeste 0 -- -- 26
2020-08-22 17:00:00 28.1 10 Oeste 21 Oeste 0 -- -- 24
2020-08-22 16:00:00 27.4 10 Oeste 37 Oeste 0 -- -- 29
2020-08-22 15:00:00 26.8 7 Norte 17 Norte 0 -- -- 35
2020-08-22 14:00:00 24.7 7 Noroeste 16 Noroeste 0 -- -- 40
2020-08-22 13:00:00 23.8 5 Nordeste 15 Norte 0 -- -- 46
2020-08-22 12:00:00 21.6 5 Norte 12 Norte 0 -- -- 53
2020-08-22 11:00:00 19.1 5 Noroeste 13 Noroeste 0 -- -- 61
2020-08-22 10:00:00 16.9 5 Oeste 10 Sudoeste 0 -- -- 69
2020-08-22 09:00:00 15.3 5 Sudeste 13 Sudeste 0 -- -- 74
2020-08-22 08:00:00 13.5 6 Sudoeste 12 Sudoeste 0 -- -- 77
2020-08-22 07:00:00 13.4 9 Sudoeste 15 Sudoeste 0 -- -- 74
2020-08-22 06:00:00 14.3 15 Sudoeste 17 Sudoeste 0 -- -- 68
2020-08-22 05:00:00 15.4 11 Sudoeste 13 Sudoeste 0 -- -- 62
2020-08-22 04:00:00 15.9 7 Sudoeste 10 Sur 0 -- -- 62
2020-08-22 03:00:00 16.8 5 Sur 14 Oeste 0 -- -- 58
2020-08-22 02:00:00 18.2 9 Oeste 12 Oeste 0 -- -- 52
2020-08-22 01:00:00 18.7 6 Oeste 11 Oeste 0 -- -- 52
2020-08-22 00:00:00 19.3 8 Noroeste 12 Noroeste 0 -- -- 51